createdAt,value
2019-03-05T00:00:39.901Z,96630.45
2019-03-05T00:03:08.225Z,96627.95
2019-03-05T00:05:36.472Z,96634.95
2019-03-05T00:08:04.726Z,96635.72
2019-03-05T00:10:32.985Z,96009.51
2019-03-05T00:13:01.237Z,96642.44
2019-03-05T00:15:30.361Z,96644.69
2019-03-05T00:17:58.654Z,96652.75
2019-03-05T00:20:26.961Z,96650.15
2019-03-05T00:22:55.222Z,96640.06
2019-03-05T00:25:25.619Z,96661.13
2019-03-05T00:28:19.839Z,96673.22
2019-03-05T00:31:00.571Z,96662.01
2019-03-05T00:33:43.984Z,96671.86
2019-03-05T00:36:32.110Z,96679.45
2019-03-05T00:39:18.763Z,96684.44
2019-03-05T00:42:15.831Z,96683.08
2019-03-05T00:44:53.002Z,96688.28
2019-03-05T00:47:27.146Z,96685.03
2019-03-05T00:50:07.341Z,96684.55
2019-03-05T00:53:02.877Z,96130.44
2019-03-05T00:55:40.294Z,96690.55
2019-03-05T00:58:14.865Z,96679.86
2019-03-05T01:01:01.349Z,96689.31
2019-03-05T01:04:04.838Z,96689.20
2019-03-05T01:06:33.138Z,96696.55
2019-03-05T01:09:01.664Z,96699.20
2019-03-05T01:11:30.122Z,96703.19
2019-03-05T01:13:58.582Z,96698.45
2019-03-05T01:16:28.630Z,96708.66
2019-03-05T01:18:56.965Z,96712.27
2019-03-05T01:21:26.637Z,96709.30
2019-03-05T01:23:54.874Z,96709.55
2019-03-05T01:26:23.346Z,96711.92
2019-03-05T01:28:51.777Z,96716.06
2019-03-05T01:31:37.719Z,96708.11
2019-03-05T01:34:07.666Z,96509.69
2019-03-05T01:36:40.725Z,96706.63
2019-03-05T01:39:25.620Z,96722.17
2019-03-05T01:41:54.030Z,96718.92
2019-03-05T01:44:22.476Z,96718.19
2019-03-05T01:46:50.953Z,96716.55
2019-03-05T01:49:19.345Z,96715.58
2019-03-05T01:51:47.682Z,96717.84
2019-03-05T01:54:16.012Z,96711.61
2019-03-05T01:56:44.307Z,96707.40
2019-03-05T01:59:14.337Z,96717.36
2019-03-05T02:01:45.836Z,96718.77
2019-03-05T02:04:14.178Z,96715.64
2019-03-05T02:06:42.557Z,96717.77
2019-03-05T02:09:10.832Z,96723.91
2019-03-05T02:11:39.254Z,96723.53
2019-03-05T02:14:07.781Z,96719.92
2019-03-05T02:16:36.151Z,96724.17
2019-03-05T02:19:33.474Z,96736.12
2019-03-05T02:22:01.829Z,96732.50
2019-03-05T02:24:48.274Z,96740.60
2019-03-05T02:27:42.350Z,96739.87
2019-03-05T02:30:31.889Z,96730.64
2019-03-05T02:33:05.955Z,96737.50
2019-03-05T02:35:37.538Z,96737.62
2019-03-05T02:38:09.088Z,96736.26
2019-03-05T02:40:49.657Z,96735.38
2019-03-05T02:43:23.860Z,96732.16
2019-03-05T02:45:58.360Z,96731.27
2019-03-05T02:48:49.182Z,96734.00
2019-03-05T02:51:35.755Z,96736.12
2019-03-05T02:54:23.801Z,96736.77
2019-03-05T02:57:08.740Z,96736.13
2019-03-05T02:59:37.263Z,96736.25
2019-03-05T03:02:08.013Z,96736.02
2019-03-05T03:04:38.106Z,96729.03
2019-03-05T03:07:06.565Z,96731.03
2019-03-05T03:09:38.222Z,96726.94
2019-03-05T03:12:06.632Z,96733.64
2019-03-05T03:14:34.945Z,96730.42
2019-03-05T03:17:03.297Z,96247.37
2019-03-05T03:19:31.733Z,96724.67
2019-03-05T03:22:00.065Z,96726.55
2019-03-05T03:24:28.542Z,96729.67
2019-03-05T03:26:56.962Z,96735.25
2019-03-05T03:29:25.305Z,96363.93
2019-03-05T03:31:53.787Z,96698.45
2019-03-05T03:34:22.225Z,96737.25
2019-03-05T03:36:50.587Z,96728.03
2019-03-05T03:39:19.036Z,96728.17
2019-03-05T03:41:47.388Z,96731.40
2019-03-05T03:44:15.750Z,96739.33
2019-03-05T03:46:44.137Z,96755.11
2019-03-05T03:49:12.556Z,96744.55
2019-03-05T03:51:40.902Z,96743.94
2019-03-05T03:54:09.183Z,96745.66
2019-03-05T03:56:37.547Z,96747.03
2019-03-05T03:59:05.906Z,96749.75
2019-03-05T04:01:34.234Z,96744.06
2019-03-05T04:04:02.604Z,96744.31
2019-03-05T04:06:31.018Z,96744.80
2019-03-05T04:08:59.441Z,96737.45
2019-03-05T04:11:27.717Z,96736.61
2019-03-05T04:13:59.521Z,96747.14
2019-03-05T04:16:26.128Z,96743.68
2019-03-05T04:18:54.391Z,96733.73
2019-03-05T04:21:22.763Z,96740.67
2019-03-05T04:23:51.135Z,96734.98
2019-03-05T04:26:19.479Z,96741.19
2019-03-05T04:28:47.755Z,96746.53
2019-03-05T04:31:16.072Z,96073.53
2019-03-05T04:33:45.995Z,96759.84
2019-03-05T04:36:14.346Z,96752.11
2019-03-05T04:38:42.923Z,96743.05
2019-03-05T04:41:11.163Z,96738.56
2019-03-05T04:43:39.522Z,96745.30
2019-03-05T04:46:09.537Z,96752.00
2019-03-05T04:48:37.848Z,96736.21
2019-03-05T04:51:07.826Z,96738.34
2019-03-05T04:53:36.201Z,96737.84
2019-03-05T04:56:04.552Z,96740.82
2019-03-05T04:58:32.915Z,96733.11
2019-03-05T05:01:01.178Z,96724.28
2019-03-05T05:03:29.509Z,96726.14
2019-03-05T05:05:57.784Z,96736.09
2019-03-05T05:08:26.199Z,96733.48
2019-03-05T05:10:54.561Z,96730.64
2019-03-05T05:13:22.895Z,96726.03
2019-03-05T05:15:51.201Z,96724.80
2019-03-05T05:18:19.512Z,96724.54
2019-03-05T05:20:47.924Z,96731.25
2019-03-05T05:23:16.261Z,96732.10
2019-03-05T05:25:44.620Z,96726.16
2019-03-05T05:28:12.907Z,96729.88
2019-03-05T05:30:42.237Z,96729.36
2019-03-05T05:33:10.521Z,96728.88
2019-03-05T05:35:38.922Z,96736.23
2019-03-05T05:38:07.329Z,96732.63
2019-03-05T05:40:40.093Z,96728.25
2019-03-05T05:43:16.512Z,96726.77
2019-03-05T05:45:46.476Z,96724.79
2019-03-05T05:48:14.794Z,96723.67
2019-03-05T05:50:43.153Z,96728.25
2019-03-05T05:53:13.192Z,96732.11
2019-03-05T05:55:41.672Z,96729.86
2019-03-05T05:58:10.192Z,96734.58
2019-03-05T06:00:40.065Z,96743.25
2019-03-05T06:03:08.381Z,96742.38
2019-03-05T06:05:36.754Z,96746.47
2019-03-05T06:08:05.047Z,96743.65
2019-03-05T06:10:33.505Z,96744.16
2019-03-05T06:13:01.878Z,96747.88
2019-03-05T06:15:30.229Z,96758.09
2019-03-05T06:17:58.626Z,96756.37
2019-03-05T06:20:27.027Z,96747.94
2019-03-05T06:22:55.428Z,96753.64
2019-03-05T06:25:23.863Z,96745.45
2019-03-05T06:27:52.194Z,96749.44
2019-03-05T06:30:25.543Z,96751.19
2019-03-05T06:32:53.817Z,96738.73
2019-03-05T06:35:22.164Z,96748.05
2019-03-05T06:37:50.503Z,96749.92
2019-03-05T06:40:24.385Z,96752.77
2019-03-05T06:42:52.913Z,96761.37
2019-03-05T06:45:21.217Z,96762.86
2019-03-05T06:47:49.638Z,96764.71
2019-03-05T06:50:24.709Z,96765.36
2019-03-05T06:52:53.072Z,96760.98
2019-03-05T06:55:23.069Z,96326.20
2019-03-05T06:57:51.463Z,96780.15
2019-03-05T07:00:25.722Z,96777.02
2019-03-05T07:02:54.185Z,96777.12
2019-03-05T07:05:59.036Z,96778.77
2019-03-05T07:08:27.558Z,96177.14
2019-03-05T07:10:59.184Z,96786.08
2019-03-05T07:13:27.641Z,96786.80
2019-03-05T07:15:59.204Z,96786.89
2019-03-05T07:18:30.720Z,96780.66
2019-03-05T07:21:08.086Z,96792.14
2019-03-05T07:23:54.363Z,96783.03
2019-03-05T07:26:22.709Z,96788.89
2019-03-05T07:28:51.033Z,96783.79
2019-03-05T07:31:19.454Z,96789.38
2019-03-05T07:33:47.813Z,96790.50
2019-03-05T07:36:16.139Z,96785.27
2019-03-05T07:38:44.617Z,96792.95
2019-03-05T07:41:13.016Z,96782.97
2019-03-05T07:43:41.314Z,96784.93
2019-03-05T07:46:09.658Z,96785.16
2019-03-05T07:48:37.996Z,96781.92
2019-03-05T07:51:06.373Z,96785.48
2019-03-05T07:53:34.663Z,96785.94
2019-03-05T07:56:03.203Z,96790.50
2019-03-05T07:58:31.617Z,96234.72
2019-03-05T08:01:00.037Z,96798.13
2019-03-05T08:03:28.380Z,96791.67
2019-03-05T08:05:56.884Z,96805.42
2019-03-05T08:09:03.494Z,95980.07
2019-03-05T08:11:31.997Z,96797.00
2019-03-05T08:14:28.765Z,96818.09
2019-03-05T08:16:57.117Z,96810.51
2019-03-05T08:19:25.639Z,96817.16
2019-03-05T08:21:53.991Z,96835.17
2019-03-05T08:24:24.110Z,96678.70
2019-03-05T08:26:52.632Z,96823.89
2019-03-05T08:29:20.937Z,96824.38
2019-03-05T08:31:49.209Z,96836.73
2019-03-05T08:34:17.635Z,96830.77
2019-03-05T08:36:45.995Z,96822.11
2019-03-05T08:39:16.103Z,96820.61
2019-03-05T08:41:44.498Z,96827.00
2019-03-05T08:44:13.015Z,96824.88
2019-03-05T08:46:41.420Z,96815.48
2019-03-05T08:49:09.766Z,96826.16
2019-03-05T08:51:44.164Z,96838.31
2019-03-05T08:54:12.579Z,96835.42
2019-03-05T08:56:41.109Z,96842.19
2019-03-05T08:59:09.518Z,96833.12
2019-03-05T09:01:39.510Z,96842.39
2019-03-05T09:04:07.797Z,96817.36
2019-03-05T09:06:36.113Z,96842.56
2019-03-05T09:09:06.493Z,96845.03
2019-03-05T09:11:34.853Z,96834.24
2019-03-05T09:14:03.173Z,96847.48
2019-03-05T09:16:31.455Z,96841.94
2019-03-05T09:19:00.606Z,96847.41
2019-03-05T09:21:28.976Z,96850.34
2019-03-05T09:23:57.333Z,96844.78
2019-03-05T09:26:25.709Z,96848.37
2019-03-05T09:28:55.719Z,96872.84
2019-03-05T09:31:24.198Z,96522.85
2019-03-05T09:33:52.666Z,96841.55
2019-03-05T09:36:25.911Z,96851.45
2019-03-05T09:38:54.152Z,96127.92
2019-03-05T09:41:22.496Z,96853.89
2019-03-05T09:43:50.864Z,96844.82
2019-03-05T09:46:19.194Z,96845.86
2019-03-05T09:48:47.592Z,96843.45
2019-03-05T09:51:15.993Z,96778.59
2019-03-05T09:53:44.359Z,96860.70
2019-03-05T09:56:12.745Z,96862.03
2019-03-05T09:58:41.126Z,96854.39
2019-03-05T10:01:09.540Z,96847.42
2019-03-05T10:03:41.007Z,96850.91
2019-03-05T10:06:09.453Z,96145.53
2019-03-05T10:08:37.921Z,96845.66
2019-03-05T10:11:06.188Z,96839.00
2019-03-05T10:13:34.472Z,96841.61
2019-03-05T10:16:02.990Z,96842.58
2019-03-05T10:18:33.030Z,96838.64
2019-03-05T10:21:01.595Z,96838.80
2019-03-05T10:23:30.060Z,96837.16
2019-03-05T10:25:58.391Z,96837.89
2019-03-05T10:28:26.889Z,96835.74
2019-03-05T10:30:55.252Z,96847.12
2019-03-05T10:33:23.700Z,96831.67
2019-03-05T10:35:52.087Z,96849.86
2019-03-05T10:38:20.473Z,96253.63
2019-03-05T10:40:51.820Z,96828.84
2019-03-05T10:43:20.205Z,96839.67
2019-03-05T10:45:49.847Z,96823.80
2019-03-05T10:48:23.493Z,96833.82
2019-03-05T10:50:51.733Z,96820.27
2019-03-05T10:53:20.354Z,96820.66
2019-03-05T10:55:48.608Z,96818.83
2019-03-05T10:58:19.465Z,96828.84
2019-03-05T11:00:52.287Z,96805.13
2019-03-05T11:03:21.684Z,96812.23
2019-03-05T11:05:50.041Z,96817.67
2019-03-05T11:08:20.610Z,96805.91
2019-03-05T11:10:48.939Z,96809.67
2019-03-05T11:13:17.200Z,96829.95
2019-03-05T11:15:46.990Z,96826.47
2019-03-05T11:18:15.517Z,96812.13
2019-03-05T11:20:43.774Z,96822.63
2019-03-05T11:23:12.031Z,96807.92
2019-03-05T11:25:40.292Z,96806.36
2019-03-05T11:28:08.579Z,96804.47
2019-03-05T11:30:38.452Z,96815.69
2019-03-05T11:33:06.941Z,96798.30
2019-03-05T11:35:35.833Z,96797.13
2019-03-05T11:38:04.094Z,96789.50
2019-03-05T11:40:32.348Z,96797.72
2019-03-05T11:43:06.823Z,96784.36
2019-03-05T11:45:35.159Z,96790.00
2019-03-05T11:48:03.407Z,96782.08
2019-03-05T11:50:31.686Z,96803.41
2019-03-05T11:52:59.945Z,96788.33
2019-03-05T11:55:29.376Z,96795.03
2019-03-05T11:57:57.662Z,96787.14
2019-03-05T12:00:29.747Z,96802.88
2019-03-05T12:02:57.992Z,96790.04
2019-03-05T12:05:26.254Z,96775.88
2019-03-05T12:07:54.518Z,96781.14
2019-03-05T12:10:27.119Z,96778.10
2019-03-05T12:12:55.408Z,96780.61
2019-03-05T12:15:25.386Z,96784.65
2019-03-05T12:17:53.642Z,96769.22
2019-03-05T12:20:21.900Z,96763.11
2019-03-05T12:22:50.227Z,96773.69
2019-03-05T12:25:20.214Z,96764.13
2019-03-05T12:27:49.833Z,96769.19
2019-03-05T12:30:23.053Z,96764.52
2019-03-05T12:32:51.316Z,96758.43
2019-03-05T12:35:19.562Z,96752.77
2019-03-05T12:37:48.358Z,96745.31
2019-03-05T12:40:18.065Z,96749.22
2019-03-05T12:42:46.306Z,96748.41
2019-03-05T12:45:16.669Z,96744.69
2019-03-05T12:47:44.980Z,96748.54
2019-03-05T12:50:25.377Z,96748.64
2019-03-05T12:52:54.545Z,96750.19
2019-03-05T12:55:22.860Z,96742.34
2019-03-05T12:57:51.137Z,96559.11
2019-03-05T13:00:29.073Z,96750.47
2019-03-05T13:02:57.421Z,96744.44
2019-03-05T13:05:25.685Z,96750.66
2019-03-05T13:07:56.661Z,96749.83
2019-03-05T13:10:35.839Z,96747.39
2019-03-05T13:13:03.534Z,96761.81
2019-03-05T13:15:39.416Z,96757.17
2019-03-05T13:18:07.704Z,96767.58
2019-03-05T13:20:35.964Z,96758.16
2019-03-05T13:23:08.726Z,96762.74
2019-03-05T13:25:34.196Z,96777.19
2019-03-05T13:28:04.145Z,96793.64
2019-03-05T13:30:32.944Z,96790.91
2019-03-05T13:33:01.232Z,96790.34
2019-03-05T13:35:32.080Z,96797.98
2019-03-05T13:38:03.234Z,96792.27
2019-03-05T13:40:34.019Z,96799.52
2019-03-05T13:43:01.583Z,96795.78
2019-03-05T13:45:29.838Z,96806.70
2019-03-05T13:48:14.729Z,96800.03
2019-03-05T13:51:09.486Z,96798.02
2019-03-05T13:54:00.804Z,96787.02
2019-03-05T13:56:37.590Z,96793.00
2019-03-05T13:59:27.705Z,96793.74
2019-03-05T14:01:55.966Z,96799.56
2019-03-05T14:04:30.263Z,96799.17
2019-03-05T14:07:36.607Z,96801.66
2019-03-05T14:10:05.319Z,96802.91
2019-03-05T14:12:33.626Z,96808.22
2019-03-05T14:15:01.977Z,96810.78
2019-03-05T14:17:30.724Z,96819.09
2019-03-05T14:19:59.160Z,96827.02
2019-03-05T14:22:27.500Z,96815.68
2019-03-05T14:25:01.995Z,96829.97
2019-03-05T14:27:26.044Z,96828.24
2019-03-05T14:29:54.362Z,96830.48
2019-03-05T14:32:24.297Z,96819.47
2019-03-05T14:34:55.735Z,96824.36
2019-03-05T14:37:24.082Z,96827.69
2019-03-05T14:39:52.375Z,96829.78
2019-03-05T14:42:20.652Z,96834.31
2019-03-05T14:44:48.927Z,96827.39
2019-03-05T14:47:17.163Z,96823.94
2019-03-05T14:49:45.627Z,96829.03
2019-03-05T14:52:13.980Z,96825.73
2019-03-05T14:54:42.236Z,96829.41
2019-03-05T14:57:10.572Z,96823.83
2019-03-05T14:59:38.939Z,96829.35
2019-03-05T15:02:07.198Z,96848.28
2019-03-05T15:04:35.450Z,96845.02
2019-03-05T15:07:04.787Z,96820.46
2019-03-05T15:09:33.190Z,96838.91
2019-03-05T15:12:01.450Z,96847.45
2019-03-05T15:14:29.798Z,96849.69
2019-03-05T15:16:58.037Z,96851.66
2019-03-05T15:19:26.290Z,96850.45
2019-03-05T15:21:54.561Z,96858.86
2019-03-05T15:24:22.793Z,96864.30
2019-03-05T15:26:51.077Z,96852.46
2019-03-05T15:29:19.390Z,96853.64
2019-03-05T15:31:47.873Z,96856.14
2019-03-05T15:34:16.439Z,96861.23
2019-03-05T15:36:44.894Z,96863.25
2019-03-05T15:39:13.136Z,96862.48
2019-03-05T15:41:45.726Z,96865.06
2019-03-05T15:44:11.410Z,96865.06
2019-03-05T15:46:39.876Z,96871.45
2019-03-05T15:49:08.268Z,96873.69
2019-03-05T15:51:36.861Z,96875.05
2019-03-05T15:54:05.355Z,96872.27
2019-03-05T15:56:33.733Z,96871.24
2019-03-05T15:59:01.994Z,96876.75
2019-03-05T16:01:30.245Z,96884.36
2019-03-05T16:03:58.767Z,96877.71
2019-03-05T16:06:30.155Z,96884.95
2019-03-05T16:08:57.919Z,96884.25
2019-03-05T16:11:30.241Z,96893.84
2019-03-05T16:13:58.026Z,96896.06
2019-03-05T16:16:26.466Z,96899.06
2019-03-05T16:18:54.719Z,96904.83
2019-03-05T16:21:22.977Z,96922.45
2019-03-05T16:23:51.234Z,96915.24
2019-03-05T16:26:23.705Z,96911.30
2019-03-05T16:28:49.551Z,96915.04
2019-03-05T16:31:22.444Z,96913.56
2019-03-05T16:33:55.135Z,96918.33
2019-03-05T16:36:28.892Z,96924.81
2019-03-05T16:39:10.520Z,96918.62
2019-03-05T16:41:40.700Z,96921.01
2019-03-05T16:44:17.022Z,96925.72
2019-03-05T16:46:53.893Z,96935.98
2019-03-05T16:49:29.890Z,96940.81
2019-03-05T16:51:59.921Z,96940.33
2019-03-05T16:54:46.417Z,96939.98
2019-03-05T16:57:19.386Z,96955.45
2019-03-05T16:59:53.279Z,96953.95
2019-03-05T17:02:38.342Z,96956.56
2019-03-05T17:05:11.415Z,96964.94
2019-03-05T17:07:44.052Z,96964.47
2019-03-05T17:10:23.013Z,96956.52
2019-03-05T17:12:51.526Z,96958.13
2019-03-05T17:15:19.780Z,96963.23
2019-03-05T17:17:48.036Z,96985.22
2019-03-05T17:20:16.317Z,96983.98
2019-03-05T17:22:44.572Z,96981.84
2019-03-05T17:25:18.567Z,96982.02
2019-03-05T17:27:47.068Z,96984.65
2019-03-05T17:30:16.737Z,96988.44
2019-03-05T17:32:45.059Z,96999.30
2019-03-05T17:35:14.267Z,97009.66
2019-03-05T17:37:42.515Z,97025.62
2019-03-05T17:40:12.220Z,97023.66
2019-03-05T17:42:40.478Z,97027.27
2019-03-05T17:45:14.871Z,97038.63
2019-03-05T17:47:43.118Z,97051.82
2019-03-05T17:50:12.833Z,97045.10
2019-03-05T17:52:41.086Z,97031.13
2019-03-05T17:55:12.575Z,97045.86
2019-03-05T17:57:40.823Z,97050.70
2019-03-05T18:00:12.410Z,97060.19
2019-03-05T18:02:40.742Z,97057.58
2019-03-05T18:05:08.983Z,97056.08
2019-03-05T18:07:37.244Z,97058.33
2019-03-05T18:10:08.236Z,97064.72
2019-03-05T18:12:36.663Z,97073.80
2019-03-05T18:15:08.305Z,97080.16
2019-03-05T18:17:36.548Z,97070.19
2019-03-05T18:20:11.784Z,97075.93
2019-03-05T18:22:40.041Z,97076.66
2019-03-05T18:25:11.233Z,97088.89
2019-03-05T18:27:39.497Z,97092.50
2019-03-05T18:30:11.013Z,97102.11
2019-03-05T18:32:39.264Z,97097.37
2019-03-05T18:35:08.872Z,97101.50
2019-03-05T18:37:37.149Z,97102.88
2019-03-05T18:40:08.811Z,97107.34
2019-03-05T18:42:37.067Z,97114.22
2019-03-05T18:45:08.582Z,97113.59
2019-03-05T18:47:37.010Z,97121.68
2019-03-05T18:50:08.604Z,97120.83
2019-03-05T18:52:36.866Z,97131.78
2019-03-05T18:55:08.402Z,97128.05
2019-03-05T18:57:36.666Z,97138.79
2019-03-05T19:00:08.179Z,97141.41
2019-03-05T19:02:36.436Z,97144.39
2019-03-05T19:05:07.442Z,97141.89
2019-03-05T19:07:35.718Z,97145.02
2019-03-05T19:10:05.545Z,97140.41
2019-03-05T19:12:33.795Z,97142.78
2019-03-05T19:15:02.054Z,97149.86
2019-03-05T19:17:30.327Z,97161.61
2019-03-05T19:19:58.585Z,97173.19
2019-03-05T19:22:26.832Z,97172.70
2019-03-05T19:24:55.089Z,97175.32
2019-03-05T19:27:26.383Z,97197.53
2019-03-05T19:29:53.327Z,97186.43
2019-03-05T19:32:21.588Z,97188.03
2019-03-05T19:34:49.893Z,97188.42
2019-03-05T19:37:18.170Z,97181.94
2019-03-05T19:39:46.442Z,97178.56
2019-03-05T19:42:14.716Z,97186.04
2019-03-05T19:44:43.003Z,97179.70
2019-03-05T19:47:11.240Z,97172.21
2019-03-05T19:49:39.516Z,97176.80
2019-03-05T19:52:07.991Z,97183.16
2019-03-05T19:54:36.354Z,97185.78
2019-03-05T19:57:04.616Z,97198.66
2019-03-05T19:59:32.993Z,97184.05
2019-03-05T20:02:01.405Z,97190.16
2019-03-05T20:04:29.676Z,97192.16
2019-03-05T20:06:57.947Z,97198.89
2019-03-05T20:09:26.194Z,97202.87
2019-03-05T20:11:54.467Z,97216.59
2019-03-05T20:14:22.988Z,97214.48
2019-03-05T20:16:51.237Z,97209.11
2019-03-05T20:19:19.512Z,97218.36
2019-03-05T20:21:47.858Z,97221.09
2019-03-05T20:24:16.233Z,97210.63
2019-03-05T20:26:44.760Z,97216.45
2019-03-05T20:29:12.982Z,97217.70
2019-03-05T20:31:44.242Z,97214.72
2019-03-05T20:34:12.490Z,97214.72
2019-03-05T20:36:40.773Z,97226.44
2019-03-05T20:39:09.116Z,97216.09
2019-03-05T20:41:37.460Z,97223.81
2019-03-05T20:44:05.720Z,97226.33
2019-03-05T20:46:34.019Z,97235.65
2019-03-05T20:49:02.277Z,97238.02
2019-03-05T20:51:30.536Z,97227.66
2019-03-05T20:53:58.853Z,97233.38
2019-03-05T20:56:27.120Z,97234.11
2019-03-05T20:58:55.383Z,97234.84
2019-03-05T21:01:23.650Z,97237.05
2019-03-05T21:03:51.935Z,97236.91
2019-03-05T21:06:21.344Z,97234.16
2019-03-05T21:08:49.668Z,97230.42
2019-03-05T21:11:17.925Z,97234.53
2019-03-05T21:13:46.209Z,97236.39
2019-03-05T21:16:14.517Z,97244.75
2019-03-05T21:18:42.779Z,97244.63
2019-03-05T21:21:11.038Z,96626.31
2019-03-05T21:23:39.293Z,97239.28
2019-03-05T21:26:07.607Z,97243.15
2019-03-05T21:28:35.859Z,97241.02
2019-03-05T21:31:04.264Z,97242.39
2019-03-05T21:33:33.801Z,97237.77
2019-03-05T21:36:02.113Z,97242.03
2019-03-05T21:38:30.348Z,97235.67
2019-03-05T21:41:00.233Z,97239.41
2019-03-05T21:43:30.984Z,97234.42
2019-03-05T21:46:05.585Z,97242.75
2019-03-05T21:48:33.876Z,97238.53
2019-03-05T21:51:02.127Z,97234.17
2019-03-05T21:53:30.491Z,97234.30
2019-03-05T21:55:58.838Z,97236.39
2019-03-05T21:58:27.122Z,97234.79
2019-03-05T22:00:55.385Z,97235.02
2019-03-05T22:03:23.640Z,97240.86
2019-03-05T22:05:51.943Z,97238.63
2019-03-05T22:08:20.277Z,97245.09
2019-03-05T22:10:48.538Z,97249.95
2019-03-05T22:13:16.876Z,97245.22
2019-03-05T22:15:45.135Z,97253.06
2019-03-05T22:18:13.420Z,97242.73
2019-03-05T22:20:41.965Z,97241.48
2019-03-05T22:23:10.233Z,97240.59
2019-03-05T22:25:38.584Z,97254.08
2019-03-05T22:28:06.819Z,97244.47
2019-03-05T22:30:36.508Z,97246.96
2019-03-05T22:33:04.834Z,97252.70
2019-03-05T22:35:33.094Z,97253.45
2019-03-05T22:38:01.831Z,97263.55
2019-03-05T22:40:30.089Z,97263.03
2019-03-05T22:42:58.441Z,97267.52
2019-03-05T22:45:27.673Z,97267.16
2019-03-05T22:47:55.925Z,97255.32
2019-03-05T22:50:24.214Z,97262.54
2019-03-05T22:52:52.453Z,97262.05
2019-03-05T22:55:20.750Z,97267.88
2019-03-05T22:57:49.005Z,97265.03
2019-03-05T23:00:36.678Z,97262.93
2019-03-05T23:03:07.242Z,97262.05
2019-03-05T23:05:35.947Z,97259.06
2019-03-05T23:08:04.594Z,97264.53
2019-03-05T23:10:32.940Z,97260.92
2019-03-05T23:13:01.240Z,97264.80
2019-03-05T23:15:29.573Z,97263.19
2019-03-05T23:17:57.843Z,97270.31
2019-03-05T23:20:26.102Z,97278.05
2019-03-05T23:22:54.376Z,97275.03
2019-03-05T23:25:22.845Z,97278.30
2019-03-05T23:27:51.097Z,97273.32
2019-03-05T23:30:21.682Z,97274.04
2019-03-05T23:32:51.571Z,97271.81
2019-03-05T23:35:19.846Z,97270.70
2019-03-05T23:37:48.078Z,97265.71
2019-03-05T23:40:16.666Z,97271.42
2019-03-05T23:42:45.033Z,97277.78
2019-03-05T23:45:18.559Z,97269.31
2019-03-05T23:47:46.893Z,97279.58
2019-03-05T23:50:18.216Z,97274.95
2019-03-05T23:52:46.454Z,97280.17
2019-03-05T23:55:14.978Z,97277.19
2019-03-05T23:57:43.541Z,97276.37
